sensor_id;sensor_type;location;lat;lon;timestamp;temperature;humidity
12123;DHT22;6125;59.628;17.852;2023-02-15T00:02:12;3.00;99.90
12123;DHT22;6125;59.628;17.852;2023-02-15T00:04:39;3.00;99.90
12123;DHT22;6125;59.628;17.852;2023-02-15T00:07:18;3.00;99.90
12123;DHT22;6125;59.628;17.852;2023-02-15T00:09:45;3.00;99.90
12123;DHT22;6125;59.628;17.852;2023-02-15T00:12:15;3.00;99.90
12123;DHT22;6125;59.628;17.852;2023-02-15T00:14:47;3.00;99.90
12123;DHT22;6125;59.628;17.852;2023-02-15T00:17:17;3.10;99.90
12123;DHT22;6125;59.628;17.852;2023-02-15T00:19:44;3.00;99.90
12123;DHT22;6125;59.628;17.852;2023-02-15T00:22:11;3.00;99.90
12123;DHT22;6125;59.628;17.852;2023-02-15T00:24:40;3.00;99.90
12123;DHT22;6125;59.628;17.852;2023-02-15T00:27:10;3.00;99.90
12123;DHT22;6125;59.628;17.852;2023-02-15T00:29:37;2.90;99.90
12123;DHT22;6125;59.628;17.852;2023-02-15T00:32:04;2.90;99.90
12123;DHT22;6125;59.628;17.852;2023-02-15T00:34:33;2.80;99.90
12123;DHT22;6125;59.628;17.852;2023-02-15T00:37:00;2.80;99.90
12123;DHT22;6125;59.628;17.852;2023-02-15T00:39:28;2.80;99.90
12123;DHT22;6125;59.628;17.852;2023-02-15T00:41:56;2.80;99.90
12123;DHT22;6125;59.628;17.852;2023-02-15T00:44:24;2.80;99.90
12123;DHT22;6125;59.628;17.852;2023-02-15T00:46:51;2.80;99.90
12123;DHT22;6125;59.628;17.852;2023-02-15T00:49:19;2.80;99.90
12123;DHT22;6125;59.628;17.852;2023-02-15T00:51:48;2.70;99.90
12123;DHT22;6125;59.628;17.852;2023-02-15T00:54:15;2.70;99.90
12123;DHT22;6125;59.628;17.852;2023-02-15T00:56:42;2.70;99.90
12123;DHT22;6125;59.628;17.852;2023-02-15T00:59:09;2.70;99.90
12123;DHT22;6125;59.628;17.852;2023-02-15T01:01:39;2.60;99.90
12123;DHT22;6125;59.628;17.852;2023-02-15T01:04:06;2.60;99.90
12123;DHT22;6125;59.628;17.852;2023-02-15T01:06:33;2.60;99.90
12123;DHT22;6125;59.628;17.852;2023-02-15T01:09:04;2.70;99.90
12123;DHT22;6125;59.628;17.852;2023-02-15T01:11:31;2.70;99.90
12123;DHT22;6125;59.628;17.852;2023-02-15T01:13:59;2.70;99.90
12123;DHT22;6125;59.628;17.852;2023-02-15T01:16:27;2.70;99.90
12123;DHT22;6125;59.628;17.852;2023-02-15T01:18:55;2.70;99.90
12123;DHT22;6125;59.628;17.852;2023-02-15T01:21:24;2.70;99.90
12123;DHT22;6125;59.628;17.852;2023-02-15T01:23:52;2.70;99.90
12123;DHT22;6125;59.628;17.852;2023-02-15T01:26:21;2.70;99.90
12123;DHT22;6125;59.628;17.852;2023-02-15T01:28:49;2.70;99.90
12123;DHT22;6125;59.628;17.852;2023-02-15T01:31:19;2.70;99.90
12123;DHT22;6125;59.628;17.852;2023-02-15T01:33:50;2.70;99.90
12123;DHT22;6125;59.628;17.852;2023-02-15T01:36:17;2.80;99.90
12123;DHT22;6125;59.628;17.852;2023-02-15T01:38:44;2.70;99.90
12123;DHT22;6125;59.628;17.852;2023-02-15T01:41:14;2.70;99.90
12123;DHT22;6125;59.628;17.852;2023-02-15T01:44:02;2.70;99.90
12123;DHT22;6125;59.628;17.852;2023-02-15T01:46:35;2.70;99.90
12123;DHT22;6125;59.628;17.852;2023-02-15T01:49:10;2.70;99.90
12123;DHT22;6125;59.628;17.852;2023-02-15T01:51:42;2.70;99.90
12123;DHT22;6125;59.628;17.852;2023-02-15T01:54:15;2.70;99.90
12123;DHT22;6125;59.628;17.852;2023-02-15T01:56:45;2.70;99.90
12123;DHT22;6125;59.628;17.852;2023-02-15T01:59:20;2.70;99.90
12123;DHT22;6125;59.628;17.852;2023-02-15T02:01:48;2.70;99.90
12123;DHT22;6125;59.628;17.852;2023-02-15T02:04:24;2.70;99.90
12123;DHT22;6125;59.628;17.852;2023-02-15T02:06:53;2.70;99.90
12123;DHT22;6125;59.628;17.852;2023-02-15T02:09:20;2.70;99.90
12123;DHT22;6125;59.628;17.852;2023-02-15T02:11:51;2.70;99.90
12123;DHT22;6125;59.628;17.852;2023-02-15T02:14:22;2.70;99.90
12123;DHT22;6125;59.628;17.852;2023-02-15T02:16:53;2.70;99.90
12123;DHT22;6125;59.628;17.852;2023-02-15T02:19:54;2.70;99.90
12123;DHT22;6125;59.628;17.852;2023-02-15T02:23:08;2.70;99.90
12123;DHT22;6125;59.628;17.852;2023-02-15T02:31:58;2.70;99.90
12123;DHT22;6125;59.628;17.852;2023-02-15T02:34:37;2.70;99.90
12123;DHT22;6125;59.628;17.852;2023-02-15T02:37:15;2.70;99.90
12123;DHT22;6125;59.628;17.852;2023-02-15T02:39:52;2.70;99.90
12123;DHT22;6125;59.628;17.852;2023-02-15T02:42:25;2.80;99.90
12123;DHT22;6125;59.628;17.852;2023-02-15T02:45:00;2.80;99.90
12123;DHT22;6125;59.628;17.852;2023-02-15T02:47:32;2.80;99.90
12123;DHT22;6125;59.628;17.852;2023-02-15T02:50:05;2.80;99.90
12123;DHT22;6125;59.628;17.852;2023-02-15T02:52:40;2.80;99.90
12123;DHT22;6125;59.628;17.852;2023-02-15T02:55:11;2.80;99.90
12123;DHT22;6125;59.628;17.852;2023-02-15T02:57:57;2.80;99.90
12123;DHT22;6125;59.628;17.852;2023-02-15T03:00:29;2.80;99.90
12123;DHT22;6125;59.628;17.852;2023-02-15T03:03:06;2.80;99.90
12123;DHT22;6125;59.628;17.852;2023-02-15T03:05:40;2.80;99.90
12123;DHT22;6125;59.628;17.852;2023-02-15T03:08:13;2.80;99.90
12123;DHT22;6125;59.628;17.852;2023-02-15T03:10:47;2.80;99.90
12123;DHT22;6125;59.628;17.852;2023-02-15T03:13:16;2.80;99.90
12123;DHT22;6125;59.628;17.852;2023-02-15T03:15:44;2.80;99.90
12123;DHT22;6125;59.628;17.852;2023-02-15T03:18:34;2.90;99.90
12123;DHT22;6125;59.628;17.852;2023-02-15T03:21:05;2.90;99.90
12123;DHT22;6125;59.628;17.852;2023-02-15T03:23:35;2.90;99.90
12123;DHT22;6125;59.628;17.852;2023-02-15T03:26:07;2.90;99.90
12123;DHT22;6125;59.628;17.852;2023-02-15T03:28:43;2.90;99.90
12123;DHT22;6125;59.628;17.852;2023-02-15T03:31:15;2.90;99.90
12123;DHT22;6125;59.628;17.852;2023-02-15T03:33:47;2.90;99.90
12123;DHT22;6125;59.628;17.852;2023-02-15T03:36:21;2.90;99.90
12123;DHT22;6125;59.628;17.852;2023-02-15T03:38:52;2.90;99.90
12123;DHT22;6125;59.628;17.852;2023-02-15T03:41:40;2.90;99.90
12123;DHT22;6125;59.628;17.852;2023-02-15T03:44:13;2.90;99.90
12123;DHT22;6125;59.628;17.852;2023-02-15T03:46:46;2.80;99.90
12123;DHT22;6125;59.628;17.852;2023-02-15T03:49:20;2.90;99.90
12123;DHT22;6125;59.628;17.852;2023-02-15T03:51:58;2.90;99.90
12123;DHT22;6125;59.628;17.852;2023-02-15T03:54:30;2.90;99.90
12123;DHT22;6125;59.628;17.852;2023-02-15T03:57:18;2.90;99.90
12123;DHT22;6125;59.628;17.852;2023-02-15T04:00:08;2.90;99.90
12123;DHT22;6125;59.628;17.852;2023-02-15T04:03:21;2.90;99.90
12123;DHT22;6125;59.628;17.852;2023-02-15T04:05:52;2.90;99.90
12123;DHT22;6125;59.628;17.852;2023-02-15T04:08:20;2.90;99.90
12123;DHT22;6125;59.628;17.852;2023-02-15T04:11:08;2.90;99.90
12123;DHT22;6125;59.628;17.852;2023-02-15T04:13:34;3.00;99.90
12123;DHT22;6125;59.628;17.852;2023-02-15T04:16:08;3.00;99.90
12123;DHT22;6125;59.628;17.852;2023-02-15T04:18:36;3.00;99.90
12123;DHT22;6125;59.628;17.852;2023-02-15T04:21:22;3.00;99.90
12123;DHT22;6125;59.628;17.852;2023-02-15T04:24:10;3.00;99.90
12123;DHT22;6125;59.628;17.852;2023-02-15T04:26:55;3.00;99.90
12123;DHT22;6125;59.628;17.852;2023-02-15T04:29:25;3.00;99.90
12123;DHT22;6125;59.628;17.852;2023-02-15T04:31:53;3.00;99.90
12123;DHT22;6125;59.628;17.852;2023-02-15T04:34:21;3.00;99.90
12123;DHT22;6125;59.628;17.852;2023-02-15T04:36:48;3.00;99.90
12123;DHT22;6125;59.628;17.852;2023-02-15T04:39:18;3.10;99.90
12123;DHT22;6125;59.628;17.852;2023-02-15T04:41:45;3.00;99.90
12123;DHT22;6125;59.628;17.852;2023-02-15T04:44:13;3.10;99.90
12123;DHT22;6125;59.628;17.852;2023-02-15T04:46:44;3.10;99.90
12123;DHT22;6125;59.628;17.852;2023-02-15T04:49:11;3.10;99.90
12123;DHT22;6125;59.628;17.852;2023-02-15T04:51:40;3.10;99.90
12123;DHT22;6125;59.628;17.852;2023-02-15T04:54:08;3.10;99.90
12123;DHT22;6125;59.628;17.852;2023-02-15T04:56:38;3.10;99.90
12123;DHT22;6125;59.628;17.852;2023-02-15T04:59:05;3.10;99.90
12123;DHT22;6125;59.628;17.852;2023-02-15T05:01:32;3.10;99.90
12123;DHT22;6125;59.628;17.852;2023-02-15T05:04:01;3.10;99.90
12123;DHT22;6125;59.628;17.852;2023-02-15T05:06:28;3.10;99.90
12123;DHT22;6125;59.628;17.852;2023-02-15T05:08:55;3.10;99.90
12123;DHT22;6125;59.628;17.852;2023-02-15T05:11:24;3.10;99.90
12123;DHT22;6125;59.628;17.852;2023-02-15T05:13:53;3.10;99.90
12123;DHT22;6125;59.628;17.852;2023-02-15T05:16:20;3.10;99.90
12123;DHT22;6125;59.628;17.852;2023-02-15T05:18:47;3.10;99.90
12123;DHT22;6125;59.628;17.852;2023-02-15T05:21:15;3.10;99.90
12123;DHT22;6125;59.628;17.852;2023-02-15T05:23:43;3.10;99.90
12123;DHT22;6125;59.628;17.852;2023-02-15T05:26:11;3.20;99.90
12123;DHT22;6125;59.628;17.852;2023-02-15T05:29:00;3.10;99.90
12123;DHT22;6125;59.628;17.852;2023-02-15T05:31:28;3.10;99.90
12123;DHT22;6125;59.628;17.852;2023-02-15T05:33:56;3.10;99.90
12123;DHT22;6125;59.628;17.852;2023-02-15T05:36:23;3.10;99.90
12123;DHT22;6125;59.628;17.852;2023-02-15T05:38:50;3.20;99.90
12123;DHT22;6125;59.628;17.852;2023-02-15T05:41:17;3.20;99.90
12123;DHT22;6125;59.628;17.852;2023-02-15T05:43:44;3.20;99.90
12123;DHT22;6125;59.628;17.852;2023-02-15T05:46:13;3.20;99.90
12123;DHT22;6125;59.628;17.852;2023-02-15T05:48:40;3.20;99.90
12123;DHT22;6125;59.628;17.852;2023-02-15T05:51:09;3.20;99.90
12123;DHT22;6125;59.628;17.852;2023-02-15T05:53:37;3.20;99.90
12123;DHT22;6125;59.628;17.852;2023-02-15T05:56:07;3.20;99.90
12123;DHT22;6125;59.628;17.852;2023-02-15T05:58:39;3.20;99.90
12123;DHT22;6125;59.628;17.852;2023-02-15T06:01:13;3.20;99.90
12123;DHT22;6125;59.628;17.852;2023-02-15T06:03:41;3.20;99.90
12123;DHT22;6125;59.628;17.852;2023-02-15T06:06:10;3.20;99.90
12123;DHT22;6125;59.628;17.852;2023-02-15T06:08:39;3.20;99.90
12123;DHT22;6125;59.628;17.852;2023-02-15T06:11:06;3.20;99.90
12123;DHT22;6125;59.628;17.852;2023-02-15T06:13:34;3.20;99.90
12123;DHT22;6125;59.628;17.852;2023-02-15T06:16:02;3.20;99.90
12123;DHT22;6125;59.628;17.852;2023-02-15T06:18:32;3.30;99.90
12123;DHT22;6125;59.628;17.852;2023-02-15T06:21:01;3.30;99.90
12123;DHT22;6125;59.628;17.852;2023-02-15T06:23:28;3.30;99.90
12123;DHT22;6125;59.628;17.852;2023-02-15T06:25:55;3.30;99.90
12123;DHT22;6125;59.628;17.852;2023-02-15T06:28:24;3.30;99.90
12123;DHT22;6125;59.628;17.852;2023-02-15T06:30:51;3.30;99.90
12123;DHT22;6125;59.628;17.852;2023-02-15T06:33:20;3.40;99.90
12123;DHT22;6125;59.628;17.852;2023-02-15T06:35:48;3.40;99.90
12123;DHT22;6125;59.628;17.852;2023-02-15T06:38:17;3.40;99.90
12123;DHT22;6125;59.628;17.852;2023-02-15T06:40:44;3.40;99.90
12123;DHT22;6125;59.628;17.852;2023-02-15T06:43:11;3.40;99.90
12123;DHT22;6125;59.628;17.852;2023-02-15T06:45:38;3.40;99.90
12123;DHT22;6125;59.628;17.852;2023-02-15T06:48:06;3.40;99.90
12123;DHT22;6125;59.628;17.852;2023-02-15T06:50:34;3.40;99.90
12123;DHT22;6125;59.628;17.852;2023-02-15T06:53:05;3.40;99.90
12123;DHT22;6125;59.628;17.852;2023-02-15T06:55:32;3.40;99.90
12123;DHT22;6125;59.628;17.852;2023-02-15T06:58:02;3.40;99.90
12123;DHT22;6125;59.628;17.852;2023-02-15T07:00:29;3.40;99.90
12123;DHT22;6125;59.628;17.852;2023-02-15T07:02:58;3.40;99.90
12123;DHT22;6125;59.628;17.852;2023-02-15T07:05:25;3.50;99.90
12123;DHT22;6125;59.628;17.852;2023-02-15T07:07:56;3.50;99.90
12123;DHT22;6125;59.628;17.852;2023-02-15T07:10:24;3.50;99.90
12123;DHT22;6125;59.628;17.852;2023-02-15T07:12:52;3.50;99.90
12123;DHT22;6125;59.628;17.852;2023-02-15T07:15:19;3.50;99.90
12123;DHT22;6125;59.628;17.852;2023-02-15T07:17:49;3.50;99.90
12123;DHT22;6125;59.628;17.852;2023-02-15T07:20:19;3.50;99.90
12123;DHT22;6125;59.628;17.852;2023-02-15T07:22:48;3.50;99.90
12123;DHT22;6125;59.628;17.852;2023-02-15T07:25:16;3.50;99.90
12123;DHT22;6125;59.628;17.852;2023-02-15T07:27:55;3.50;99.90
12123;DHT22;6125;59.628;17.852;2023-02-15T07:30:23;3.60;99.90
12123;DHT22;6125;59.628;17.852;2023-02-15T07:32:50;3.60;99.90
12123;DHT22;6125;59.628;17.852;2023-02-15T07:35:35;3.60;99.90
12123;DHT22;6125;59.628;17.852;2023-02-15T07:38:02;3.60;99.90
12123;DHT22;6125;59.628;17.852;2023-02-15T07:40:29;3.60;99.90
12123;DHT22;6125;59.628;17.852;2023-02-15T07:43:00;3.60;99.90
12123;DHT22;6125;59.628;17.852;2023-02-15T07:45:27;3.60;99.90
12123;DHT22;6125;59.628;17.852;2023-02-15T07:47:55;3.70;99.90
12123;DHT22;6125;59.628;17.852;2023-02-15T07:50:23;3.70;99.90
12123;DHT22;6125;59.628;17.852;2023-02-15T07:52:50;3.70;99.90
12123;DHT22;6125;59.628;17.852;2023-02-15T07:55:17;3.70;99.90
12123;DHT22;6125;59.628;17.852;2023-02-15T07:57:45;3.70;99.90
12123;DHT22;6125;59.628;17.852;2023-02-15T08:00:15;3.70;99.90
12123;DHT22;6125;59.628;17.852;2023-02-15T08:02:48;3.70;99.90
12123;DHT22;6125;59.628;17.852;2023-02-15T08:05:36;3.60;99.90
12123;DHT22;6125;59.628;17.852;2023-02-15T08:08:03;3.70;99.90
12123;DHT22;6125;59.628;17.852;2023-02-15T08:10:31;3.70;99.90
12123;DHT22;6125;59.628;17.852;2023-02-15T08:13:16;3.70;99.90
12123;DHT22;6125;59.628;17.852;2023-02-15T08:15:49;3.70;99.90
12123;DHT22;6125;59.628;17.852;2023-02-15T08:18:18;3.80;99.90
12123;DHT22;6125;59.628;17.852;2023-02-15T08:20:49;3.80;99.90
12123;DHT22;6125;59.628;17.852;2023-02-15T08:23:16;3.80;99.90
12123;DHT22;6125;59.628;17.852;2023-02-15T08:25:43;3.80;99.90
12123;DHT22;6125;59.628;17.852;2023-02-15T08:28:12;3.80;99.90
12123;DHT22;6125;59.628;17.852;2023-02-15T08:30:46;3.90;99.90
12123;DHT22;6125;59.628;17.852;2023-02-15T08:33:17;3.90;99.90
12123;DHT22;6125;59.628;17.852;2023-02-15T08:35:44;3.90;99.90
12123;DHT22;6125;59.628;17.852;2023-02-15T08:38:13;3.90;99.90
12123;DHT22;6125;59.628;17.852;2023-02-15T08:40:41;3.90;99.90
12123;DHT22;6125;59.628;17.852;2023-02-15T08:43:08;3.90;99.90
12123;DHT22;6125;59.628;17.852;2023-02-15T08:45:36;3.90;99.90
12123;DHT22;6125;59.628;17.852;2023-02-15T08:48:03;3.90;99.90
12123;DHT22;6125;59.628;17.852;2023-02-15T08:50:32;3.90;99.90
12123;DHT22;6125;59.628;17.852;2023-02-15T08:53:01;4.00;99.90
12123;DHT22;6125;59.628;17.852;2023-02-15T08:55:29;4.00;99.90
12123;DHT22;6125;59.628;17.852;2023-02-15T08:57:58;4.00;99.90
12123;DHT22;6125;59.628;17.852;2023-02-15T09:00:25;4.00;99.90
12123;DHT22;6125;59.628;17.852;2023-02-15T09:02:53;4.00;99.90
12123;DHT22;6125;59.628;17.852;2023-02-15T09:05:21;4.00;99.90
12123;DHT22;6125;59.628;17.852;2023-02-15T09:07:50;4.10;99.90
12123;DHT22;6125;59.628;17.852;2023-02-15T09:10:17;4.10;99.90
12123;DHT22;6125;59.628;17.852;2023-02-15T09:12:45;4.10;99.90
12123;DHT22;6125;59.628;17.852;2023-02-15T09:15:12;4.10;99.90
12123;DHT22;6125;59.628;17.852;2023-02-15T09:17:39;4.10;99.90
12123;DHT22;6125;59.628;17.852;2023-02-15T09:20:11;4.10;99.90
12123;DHT22;6125;59.628;17.852;2023-02-15T09:22:38;4.10;99.90
12123;DHT22;6125;59.628;17.852;2023-02-15T09:25:08;4.10;99.90
12123;DHT22;6125;59.628;17.852;2023-02-15T09:27:35;4.20;99.90
12123;DHT22;6125;59.628;17.852;2023-02-15T09:30:02;4.20;99.90
12123;DHT22;6125;59.628;17.852;2023-02-15T09:32:34;4.20;99.90
12123;DHT22;6125;59.628;17.852;2023-02-15T09:35:01;4.20;99.90
12123;DHT22;6125;59.628;17.852;2023-02-15T09:37:30;4.20;99.90
12123;DHT22;6125;59.628;17.852;2023-02-15T09:39:59;4.20;99.90
12123;DHT22;6125;59.628;17.852;2023-02-15T09:42:45;4.20;99.90
12123;DHT22;6125;59.628;17.852;2023-02-15T09:45:29;4.30;99.90
12123;DHT22;6125;59.628;17.852;2023-02-15T09:48:20;4.30;99.90
12123;DHT22;6125;59.628;17.852;2023-02-15T09:51:02;4.30;99.90
12123;DHT22;6125;59.628;17.852;2023-02-15T09:53:45;4.30;99.90
12123;DHT22;6125;59.628;17.852;2023-02-15T09:56:18;4.30;99.90
12123;DHT22;6125;59.628;17.852;2023-02-15T09:58:55;4.30;99.90
12123;DHT22;6125;59.628;17.852;2023-02-15T10:01:28;4.40;99.90
12123;DHT22;6125;59.628;17.852;2023-02-15T10:04:18;4.40;99.90
12123;DHT22;6125;59.628;17.852;2023-02-15T10:06:55;4.50;99.90
12123;DHT22;6125;59.628;17.852;2023-02-15T10:09:46;4.50;99.90
12123;DHT22;6125;59.628;17.852;2023-02-15T10:12:41;4.50;99.90
12123;DHT22;6125;59.628;17.852;2023-02-15T10:15:26;4.50;99.90
12123;DHT22;6125;59.628;17.852;2023-02-15T10:18:11;4.50;99.90
12123;DHT22;6125;59.628;17.852;2023-02-15T10:20:52;4.50;99.90
12123;DHT22;6125;59.628;17.852;2023-02-15T10:23:41;4.50;99.90
12123;DHT22;6125;59.628;17.852;2023-02-15T10:26:14;4.50;99.90
12123;DHT22;6125;59.628;17.852;2023-02-15T10:28:46;4.50;99.90
12123;DHT22;6125;59.628;17.852;2023-02-15T10:31:23;4.50;99.90
12123;DHT22;6125;59.628;17.852;2023-02-15T10:34:06;4.50;99.90
12123;DHT22;6125;59.628;17.852;2023-02-15T10:37:04;4.50;99.90
12123;DHT22;6125;59.628;17.852;2023-02-15T10:39:40;4.50;99.90
12123;DHT22;6125;59.628;17.852;2023-02-15T10:42:15;4.50;99.90
12123;DHT22;6125;59.628;17.852;2023-02-15T10:44:57;4.50;99.90
12123;DHT22;6125;59.628;17.852;2023-02-15T10:50:33;4.50;99.90
12123;DHT22;6125;59.628;17.852;2023-02-15T10:53:20;4.50;99.90
12123;DHT22;6125;59.628;17.852;2023-02-15T10:55:55;4.50;99.90
12123;DHT22;6125;59.628;17.852;2023-02-15T10:58:31;4.50;99.90
12123;DHT22;6125;59.628;17.852;2023-02-15T11:01:05;4.50;99.90
12123;DHT22;6125;59.628;17.852;2023-02-15T11:03:58;4.60;99.90
12123;DHT22;6125;59.628;17.852;2023-02-15T11:06:33;4.50;99.90
12123;DHT22;6125;59.628;17.852;2023-02-15T11:09:03;4.50;99.90
12123;DHT22;6125;59.628;17.852;2023-02-15T11:11:35;4.50;99.90
12123;DHT22;6125;59.628;17.852;2023-02-15T11:14:15;4.50;99.90
12123;DHT22;6125;59.628;17.852;2023-02-15T11:16:45;4.60;99.90
12123;DHT22;6125;59.628;17.852;2023-02-15T11:19:18;4.50;99.90
12123;DHT22;6125;59.628;17.852;2023-02-15T11:21:50;4.60;99.90
12123;DHT22;6125;59.628;17.852;2023-02-15T11:24:20;4.60;99.90
12123;DHT22;6125;59.628;17.852;2023-02-15T11:26:51;4.60;99.90
12123;DHT22;6125;59.628;17.852;2023-02-15T11:29:25;4.70;99.90
12123;DHT22;6125;59.628;17.852;2023-02-15T11:31:55;4.70;99.90
12123;DHT22;6125;59.628;17.852;2023-02-15T11:34:32;4.80;99.90
12123;DHT22;6125;59.628;17.852;2023-02-15T11:37:07;4.70;99.90
12123;DHT22;6125;59.628;17.852;2023-02-15T11:39:35;4.70;99.90
12123;DHT22;6125;59.628;17.852;2023-02-15T11:42:09;4.70;99.90
12123;DHT22;6125;59.628;17.852;2023-02-15T11:44:45;4.60;99.90
12123;DHT22;6125;59.628;17.852;2023-02-15T11:47:14;4.70;99.90
12123;DHT22;6125;59.628;17.852;2023-02-15T11:49:46;4.70;99.90
12123;DHT22;6125;59.628;17.852;2023-02-15T11:52:16;4.60;99.90
12123;DHT22;6125;59.628;17.852;2023-02-15T11:54:47;4.60;99.90
12123;DHT22;6125;59.628;17.852;2023-02-15T11:57:22;4.60;99.90
12123;DHT22;6125;59.628;17.852;2023-02-15T11:59:53;4.60;99.90
12123;DHT22;6125;59.628;17.852;2023-02-15T12:02:24;4.60;99.90
12123;DHT22;6125;59.628;17.852;2023-02-15T12:04:58;4.50;99.90
12123;DHT22;6125;59.628;17.852;2023-02-15T12:07:30;4.50;99.90
12123;DHT22;6125;59.628;17.852;2023-02-15T12:10:03;4.60;99.90
12123;DHT22;6125;59.628;17.852;2023-02-15T12:12:34;4.50;99.90
12123;DHT22;6125;59.628;17.852;2023-02-15T12:15:03;4.40;99.90
12123;DHT22;6125;59.628;17.852;2023-02-15T12:17:33;4.40;99.90
12123;DHT22;6125;59.628;17.852;2023-02-15T12:20:03;4.40;99.90
12123;DHT22;6125;59.628;17.852;2023-02-15T12:22:33;4.40;99.90
12123;DHT22;6125;59.628;17.852;2023-02-15T12:25:23;4.40;99.90
12123;DHT22;6125;59.628;17.852;2023-02-15T12:27:51;4.30;99.90
12123;DHT22;6125;59.628;17.852;2023-02-15T12:30:22;4.30;99.90
12123;DHT22;6125;59.628;17.852;2023-02-15T12:32:52;4.30;99.90
12123;DHT22;6125;59.628;17.852;2023-02-15T12:35:28;4.30;99.90
12123;DHT22;6125;59.628;17.852;2023-02-15T12:38:26;4.20;99.90
12123;DHT22;6125;59.628;17.852;2023-02-15T12:41:01;4.20;99.90
12123;DHT22;6125;59.628;17.852;2023-02-15T12:43:33;4.20;99.90
12123;DHT22;6125;59.628;17.852;2023-02-15T12:46:24;4.20;99.90
12123;DHT22;6125;59.628;17.852;2023-02-15T12:49:14;4.20;99.90
12123;DHT22;6125;59.628;17.852;2023-02-15T12:51:46;4.10;99.90
12123;DHT22;6125;59.628;17.852;2023-02-15T12:54:35;4.10;99.90
12123;DHT22;6125;59.628;17.852;2023-02-15T12:57:22;4.10;99.90
12123;DHT22;6125;59.628;17.852;2023-02-15T12:59:53;4.10;99.90
12123;DHT22;6125;59.628;17.852;2023-02-15T13:02:30;4.20;99.90
12123;DHT22;6125;59.628;17.852;2023-02-15T13:05:13;4.10;99.90
12123;DHT22;6125;59.628;17.852;2023-02-15T13:07:47;4.00;99.90
12123;DHT22;6125;59.628;17.852;2023-02-15T13:10:23;4.10;99.90
12123;DHT22;6125;59.628;17.852;2023-02-15T13:12:55;4.10;99.90
12123;DHT22;6125;59.628;17.852;2023-02-15T13:15:26;4.10;99.90
12123;DHT22;6125;59.628;17.852;2023-02-15T13:17:56;4.20;99.90
12123;DHT22;6125;59.628;17.852;2023-02-15T13:20:26;4.10;99.90
12123;DHT22;6125;59.628;17.852;2023-02-15T13:22:58;4.10;99.90
12123;DHT22;6125;59.628;17.852;2023-02-15T13:25:29;4.20;99.90
12123;DHT22;6125;59.628;17.852;2023-02-15T13:28:03;4.20;99.90
12123;DHT22;6125;59.628;17.852;2023-02-15T13:30:34;4.10;99.90
12123;DHT22;6125;59.628;17.852;2023-02-15T13:33:04;4.10;99.90
12123;DHT22;6125;59.628;17.852;2023-02-15T13:35:38;4.10;99.90
12123;DHT22;6125;59.628;17.852;2023-02-15T13:38:35;4.10;99.90
12123;DHT22;6125;59.628;17.852;2023-02-15T13:41:11;4.10;99.90
12123;DHT22;6125;59.628;17.852;2023-02-15T13:43:47;4.10;99.90
12123;DHT22;6125;59.628;17.852;2023-02-15T13:46:25;4.10;99.90
12123;DHT22;6125;59.628;17.852;2023-02-15T13:49:07;4.10;99.90
12123;DHT22;6125;59.628;17.852;2023-02-15T13:51:43;4.10;99.90
12123;DHT22;6125;59.628;17.852;2023-02-15T13:54:42;4.10;99.90
12123;DHT22;6125;59.628;17.852;2023-02-15T13:57:33;4.10;99.90
12123;DHT22;6125;59.628;17.852;2023-02-15T14:00:13;4.00;99.90
12123;DHT22;6125;59.628;17.852;2023-02-15T14:05:57;4.00;99.90
12123;DHT22;6125;59.628;17.852;2023-02-15T14:08:44;4.00;99.90
12123;DHT22;6125;59.628;17.852;2023-02-15T14:11:20;4.00;99.90
12123;DHT22;6125;59.628;17.852;2023-02-15T14:14:15;3.90;99.90
12123;DHT22;6125;59.628;17.852;2023-02-15T14:16:54;3.90;99.90
12123;DHT22;6125;59.628;17.852;2023-02-15T14:19:31;3.90;99.90
12123;DHT22;6125;59.628;17.852;2023-02-15T14:22:14;3.90;99.90
12123;DHT22;6125;59.628;17.852;2023-02-15T14:24:58;3.90;99.90
12123;DHT22;6125;59.628;17.852;2023-02-15T14:27:41;3.80;99.90
12123;DHT22;6125;59.628;17.852;2023-02-15T14:30:19;3.80;99.90
12123;DHT22;6125;59.628;17.852;2023-02-15T14:32:50;3.80;99.90
12123;DHT22;6125;59.628;17.852;2023-02-15T14:35:21;3.70;99.90
12123;DHT22;6125;59.628;17.852;2023-02-15T14:37:52;3.70;99.90
12123;DHT22;6125;59.628;17.852;2023-02-15T14:40:32;3.70;99.90
12123;DHT22;6125;59.628;17.852;2023-02-15T14:43:26;3.60;99.90
12123;DHT22;6125;59.628;17.852;2023-02-15T14:45:55;3.60;99.90
12123;DHT22;6125;59.628;17.852;2023-02-15T14:48:30;3.60;99.90
12123;DHT22;6125;59.628;17.852;2023-02-15T14:50:58;3.50;99.90
12123;DHT22;6125;59.628;17.852;2023-02-15T14:53:36;3.50;99.90
12123;DHT22;6125;59.628;17.852;2023-02-15T14:56:25;3.50;99.90
12123;DHT22;6125;59.628;17.852;2023-02-15T14:58:59;3.40;99.90
12123;DHT22;6125;59.628;17.852;2023-02-15T15:01:30;3.40;99.90
12123;DHT22;6125;59.628;17.852;2023-02-15T15:04:04;3.40;99.90
12123;DHT22;6125;59.628;17.852;2023-02-15T15:06:38;3.40;99.90
12123;DHT22;6125;59.628;17.852;2023-02-15T15:09:13;3.40;99.90
12123;DHT22;6125;59.628;17.852;2023-02-15T15:11:47;3.40;99.90
12123;DHT22;6125;59.628;17.852;2023-02-15T15:14:38;3.30;99.90
12123;DHT22;6125;59.628;17.852;2023-02-15T15:17:08;3.30;99.90
12123;DHT22;6125;59.628;17.852;2023-02-15T15:20:11;3.30;99.90
12123;DHT22;6125;59.628;17.852;2023-02-15T15:22:41;3.30;99.90
12123;DHT22;6125;59.628;17.852;2023-02-15T15:25:12;3.30;99.90
12123;DHT22;6125;59.628;17.852;2023-02-15T15:28:01;3.20;99.90
12123;DHT22;6125;59.628;17.852;2023-02-15T15:31:03;3.20;99.90
12123;DHT22;6125;59.628;17.852;2023-02-15T15:43:46;3.10;99.90
12123;DHT22;6125;59.628;17.852;2023-02-15T15:46:47;3.10;99.90
12123;DHT22;6125;59.628;17.852;2023-02-15T15:49:20;3.00;99.90
12123;DHT22;6125;59.628;17.852;2023-02-15T15:51:48;3.00;99.90
12123;DHT22;6125;59.628;17.852;2023-02-15T15:54:17;3.00;99.90
12123;DHT22;6125;59.628;17.852;2023-02-15T15:56:51;3.00;99.90
12123;DHT22;6125;59.628;17.852;2023-02-15T15:59:23;3.00;99.90
12123;DHT22;6125;59.628;17.852;2023-02-15T16:01:52;2.90;99.90
12123;DHT22;6125;59.628;17.852;2023-02-15T16:04:24;2.90;99.90
12123;DHT22;6125;59.628;17.852;2023-02-15T16:06:52;2.90;99.90
12123;DHT22;6125;59.628;17.852;2023-02-15T16:09:21;2.90;99.90
12123;DHT22;6125;59.628;17.852;2023-02-15T16:11:52;2.90;99.90
12123;DHT22;6125;59.628;17.852;2023-02-15T16:14:26;2.90;99.90
12123;DHT22;6125;59.628;17.852;2023-02-15T16:17:02;2.90;99.90
12123;DHT22;6125;59.628;17.852;2023-02-15T16:19:35;2.90;99.90
12123;DHT22;6125;59.628;17.852;2023-02-15T16:22:09;2.90;99.90
12123;DHT22;6125;59.628;17.852;2023-02-15T16:24:47;2.80;99.90
12123;DHT22;6125;59.628;17.852;2023-02-15T16:27:37;2.90;99.90
12123;DHT22;6125;59.628;17.852;2023-02-15T16:30:28;2.80;99.90
12123;DHT22;6125;59.628;17.852;2023-02-15T16:33:05;2.80;99.90
12123;DHT22;6125;59.628;17.852;2023-02-15T16:35:34;2.80;99.90
12123;DHT22;6125;59.628;17.852;2023-02-15T16:38:03;2.80;99.90
12123;DHT22;6125;59.628;17.852;2023-02-15T16:40:46;2.80;99.90
12123;DHT22;6125;59.628;17.852;2023-02-15T16:43:17;2.80;99.90
12123;DHT22;6125;59.628;17.852;2023-02-15T16:45:47;2.80;99.90
12123;DHT22;6125;59.628;17.852;2023-02-15T16:48:20;2.80;99.90